sensor_id;sensor_type;location;lat;lon;timestamp;temperature;humidity
7143;DHT22;3613;48.902;9.204;2022-10-16T00:00:44;15.40;99.90
7143;DHT22;3613;48.902;9.204;2022-10-16T00:03:10;15.50;99.90
7143;DHT22;3613;48.902;9.204;2022-10-16T00:05:41;15.50;99.90
7143;DHT22;3613;48.902;9.204;2022-10-16T00:08:08;15.60;99.90
7143;DHT22;3613;48.902;9.204;2022-10-16T00:10:35;15.70;99.90
7143;DHT22;3613;48.902;9.204;2022-10-16T00:13:01;15.60;99.90
7143;DHT22;3613;48.902;9.204;2022-10-16T00:15:26;15.60;99.90
7143;DHT22;3613;48.902;9.204;2022-10-16T00:17:52;15.50;99.90
7143;DHT22;3613;48.902;9.204;2022-10-16T00:20:20;15.50;99.90
7143;DHT22;3613;48.902;9.204;2022-10-16T00:22:48;15.40;99.90
7143;DHT22;3613;48.902;9.204;2022-10-16T00:25:13;15.40;99.90
7143;DHT22;3613;48.902;9.204;2022-10-16T00:27:39;15.30;99.90
7143;DHT22;3613;48.902;9.204;2022-10-16T00:30:08;15.30;99.90
7143;DHT22;3613;48.902;9.204;2022-10-16T00:32:36;15.20;99.90
7143;DHT22;3613;48.902;9.204;2022-10-16T00:35:04;15.20;99.90
7143;DHT22;3613;48.902;9.204;2022-10-16T00:37:30;15.30;99.90
7143;DHT22;3613;48.902;9.204;2022-10-16T00:39:58;15.30;99.90
7143;DHT22;3613;48.902;9.204;2022-10-16T00:42:23;15.20;99.90
7143;DHT22;3613;48.902;9.204;2022-10-16T00:50:06;15.10;99.90
7143;DHT22;3613;48.902;9.204;2022-10-16T00:52:33;15.20;99.90
7143;DHT22;3613;48.902;9.204;2022-10-16T00:55:00;15.20;99.90
7143;DHT22;3613;48.902;9.204;2022-10-16T00:57:26;15.30;99.90
7143;DHT22;3613;48.902;9.204;2022-10-16T00:59:57;15.30;99.90
7143;DHT22;3613;48.902;9.204;2022-10-16T01:02:23;15.40;99.90
7143;DHT22;3613;48.902;9.204;2022-10-16T01:04:50;15.40;99.90
7143;DHT22;3613;48.902;9.204;2022-10-16T01:15:17;15.70;99.90
7143;DHT22;3613;48.902;9.204;2022-10-16T01:17:49;15.70;99.90
7143;DHT22;3613;48.902;9.204;2022-10-16T01:20:37;15.80;99.90
7143;DHT22;3613;48.902;9.204;2022-10-16T01:31:15;15.80;99.90
7143;DHT22;3613;48.902;9.204;2022-10-16T01:33:51;15.80;99.90
7143;DHT22;3613;48.902;9.204;2022-10-16T01:36:25;15.80;99.90
7143;DHT22;3613;48.902;9.204;2022-10-16T01:38:54;15.90;99.90
7143;DHT22;3613;48.902;9.204;2022-10-16T01:41:31;16.00;99.90
7143;DHT22;3613;48.902;9.204;2022-10-16T01:44:14;15.90;99.90
7143;DHT22;3613;48.902;9.204;2022-10-16T01:46:44;15.90;99.90
7143;DHT22;3613;48.902;9.204;2022-10-16T01:49:11;15.90;99.90
7143;DHT22;3613;48.902;9.204;2022-10-16T01:51:38;15.90;99.90
7143;DHT22;3613;48.902;9.204;2022-10-16T01:54:06;15.90;99.90
7143;DHT22;3613;48.902;9.204;2022-10-16T01:56:32;15.90;99.90
7143;DHT22;3613;48.902;9.204;2022-10-16T01:59:10;15.90;99.90
7143;DHT22;3613;48.902;9.204;2022-10-16T02:01:41;16.00;99.90
7143;DHT22;3613;48.902;9.204;2022-10-16T02:04:23;15.80;99.90
7143;DHT22;3613;48.902;9.204;2022-10-16T02:06:50;15.90;99.90
7143;DHT22;3613;48.902;9.204;2022-10-16T02:09:15;15.90;99.90
7143;DHT22;3613;48.902;9.204;2022-10-16T02:11:42;15.90;99.90
7143;DHT22;3613;48.902;9.204;2022-10-16T02:14:11;15.90;99.90
7143;DHT22;3613;48.902;9.204;2022-10-16T02:16:43;15.90;99.90
7143;DHT22;3613;48.902;9.204;2022-10-16T02:19:09;15.90;99.90
7143;DHT22;3613;48.902;9.204;2022-10-16T02:24:19;16.00;99.90
7143;DHT22;3613;48.902;9.204;2022-10-16T02:26:59;16.10;99.90
7143;DHT22;3613;48.902;9.204;2022-10-16T02:29:28;16.10;99.90
7143;DHT22;3613;48.902;9.204;2022-10-16T02:31:59;16.20;99.90
7143;DHT22;3613;48.902;9.204;2022-10-16T02:34:27;16.10;99.90
7143;DHT22;3613;48.902;9.204;2022-10-16T02:36:54;16.00;99.90
7143;DHT22;3613;48.902;9.204;2022-10-16T02:39:20;16.00;99.90
7143;DHT22;3613;48.902;9.204;2022-10-16T02:41:48;16.00;99.90
7143;DHT22;3613;48.902;9.204;2022-10-16T02:44:16;16.00;99.90
7143;DHT22;3613;48.902;9.204;2022-10-16T02:46:44;16.00;99.90
7143;DHT22;3613;48.902;9.204;2022-10-16T02:49:12;15.90;99.90
7143;DHT22;3613;48.902;9.204;2022-10-16T02:51:38;16.00;99.90
7143;DHT22;3613;48.902;9.204;2022-10-16T02:54:03;15.90;99.90
7143;DHT22;3613;48.902;9.204;2022-10-16T02:56:29;15.90;99.90
7143;DHT22;3613;48.902;9.204;2022-10-16T02:58:57;15.90;99.90
7143;DHT22;3613;48.902;9.204;2022-10-16T03:01:25;15.90;99.90
7143;DHT22;3613;48.902;9.204;2022-10-16T03:03:51;15.80;99.90
7143;DHT22;3613;48.902;9.204;2022-10-16T03:06:19;15.70;99.90
7143;DHT22;3613;48.902;9.204;2022-10-16T03:08:45;15.60;99.90
7143;DHT22;3613;48.902;9.204;2022-10-16T03:11:13;15.70;99.90
7143;DHT22;3613;48.902;9.204;2022-10-16T03:13:38;15.70;99.90
7143;DHT22;3613;48.902;9.204;2022-10-16T03:16:06;15.80;99.90
7143;DHT22;3613;48.902;9.204;2022-10-16T03:18:34;15.60;99.90
7143;DHT22;3613;48.902;9.204;2022-10-16T03:21:00;15.60;99.90
7143;DHT22;3613;48.902;9.204;2022-10-16T03:23:25;15.50;99.90
7143;DHT22;3613;48.902;9.204;2022-10-16T03:25:51;15.50;99.90
7143;DHT22;3613;48.902;9.204;2022-10-16T03:28:17;15.50;99.90
7143;DHT22;3613;48.902;9.204;2022-10-16T03:30:45;15.40;99.90
7143;DHT22;3613;48.902;9.204;2022-10-16T03:33:13;15.30;99.90
7143;DHT22;3613;48.902;9.204;2022-10-16T03:35:41;15.30;99.90
7143;DHT22;3613;48.902;9.204;2022-10-16T03:38:07;15.20;99.90
7143;DHT22;3613;48.902;9.204;2022-10-16T03:40:32;15.20;99.90
7143;DHT22;3613;48.902;9.204;2022-10-16T03:42:58;15.20;99.90
7143;DHT22;3613;48.902;9.204;2022-10-16T03:45:25;15.20;99.90
7143;DHT22;3613;48.902;9.204;2022-10-16T03:47:51;15.10;99.90
7143;DHT22;3613;48.902;9.204;2022-10-16T03:50:17;15.10;99.90
7143;DHT22;3613;48.902;9.204;2022-10-16T03:52:42;15.20;99.90
7143;DHT22;3613;48.902;9.204;2022-10-16T03:55:08;15.10;99.90
7143;DHT22;3613;48.902;9.204;2022-10-16T03:57:34;15.10;99.90
7143;DHT22;3613;48.902;9.204;2022-10-16T03:59:59;15.20;99.90
7143;DHT22;3613;48.902;9.204;2022-10-16T04:02:25;15.00;99.90
7143;DHT22;3613;48.902;9.204;2022-10-16T04:04:50;15.00;99.90
7143;DHT22;3613;48.902;9.204;2022-10-16T04:07:16;15.00;99.90
7143;DHT22;3613;48.902;9.204;2022-10-16T04:09:44;14.90;99.90
7143;DHT22;3613;48.902;9.204;2022-10-16T04:12:10;14.90;99.90
7143;DHT22;3613;48.902;9.204;2022-10-16T04:14:35;14.90;99.90
7143;DHT22;3613;48.902;9.204;2022-10-16T04:17:01;14.90;99.90
7143;DHT22;3613;48.902;9.204;2022-10-16T04:19:27;14.80;99.90
7143;DHT22;3613;48.902;9.204;2022-10-16T04:21:52;14.70;99.90
7143;DHT22;3613;48.902;9.204;2022-10-16T04:24:18;14.70;99.90
7143;DHT22;3613;48.902;9.204;2022-10-16T04:26:43;14.70;99.90
7143;DHT22;3613;48.902;9.204;2022-10-16T04:29:11;14.60;99.90
7143;DHT22;3613;48.902;9.204;2022-10-16T04:31:37;14.60;99.90
7143;DHT22;3613;48.902;9.204;2022-10-16T04:34:02;14.60;99.90
7143;DHT22;3613;48.902;9.204;2022-10-16T04:36:30;14.50;99.90
7143;DHT22;3613;48.902;9.204;2022-10-16T04:38:58;14.50;99.90
7143;DHT22;3613;48.902;9.204;2022-10-16T04:41:24;14.50;99.90
7143;DHT22;3613;48.902;9.204;2022-10-16T04:43:49;14.40;99.90
7143;DHT22;3613;48.902;9.204;2022-10-16T04:46:15;14.40;99.90
7143;DHT22;3613;48.902;9.204;2022-10-16T04:48:41;14.30;99.90
7143;DHT22;3613;48.902;9.204;2022-10-16T04:51:09;14.40;99.90
7143;DHT22;3613;48.902;9.204;2022-10-16T04:53:37;14.40;99.90
7143;DHT22;3613;48.902;9.204;2022-10-16T04:56:05;14.40;99.90
7143;DHT22;3613;48.902;9.204;2022-10-16T04:58:33;14.30;99.90
7143;DHT22;3613;48.902;9.204;2022-10-16T05:00:58;14.30;99.90
7143;DHT22;3613;48.902;9.204;2022-10-16T05:03:24;14.30;99.90
7143;DHT22;3613;48.902;9.204;2022-10-16T05:05:49;14.30;99.90
7143;DHT22;3613;48.902;9.204;2022-10-16T05:08:18;14.40;99.90
7143;DHT22;3613;48.902;9.204;2022-10-16T05:10:48;14.30;99.90
7143;DHT22;3613;48.902;9.204;2022-10-16T05:13:14;14.30;99.90
7143;DHT22;3613;48.902;9.204;2022-10-16T05:15:39;14.30;99.90
7143;DHT22;3613;48.902;9.204;2022-10-16T05:18:05;14.30;99.90
7143;DHT22;3613;48.902;9.204;2022-10-16T05:20:31;14.20;99.90
7143;DHT22;3613;48.902;9.204;2022-10-16T05:22:56;14.20;99.90
7143;DHT22;3613;48.902;9.204;2022-10-16T05:25:22;14.20;99.90
7143;DHT22;3613;48.902;9.204;2022-10-16T05:27:48;14.20;99.90
7143;DHT22;3613;48.902;9.204;2022-10-16T05:30:15;14.10;99.90
7143;DHT22;3613;48.902;9.204;2022-10-16T05:32:49;14.10;99.90
7143;DHT22;3613;48.902;9.204;2022-10-16T05:35:16;14.10;99.90
7143;DHT22;3613;48.902;9.204;2022-10-16T05:37:42;14.10;99.90
7143;DHT22;3613;48.902;9.204;2022-10-16T05:40:11;14.10;99.90
7143;DHT22;3613;48.902;9.204;2022-10-16T05:42:39;14.00;99.90
7143;DHT22;3613;48.902;9.204;2022-10-16T05:45:11;14.00;99.90
7143;DHT22;3613;48.902;9.204;2022-10-16T05:47:37;14.00;99.90
7143;DHT22;3613;48.902;9.204;2022-10-16T05:50:03;14.00;99.90
7143;DHT22;3613;48.902;9.204;2022-10-16T05:52:29;14.00;99.90
7143;DHT22;3613;48.902;9.204;2022-10-16T05:54:57;14.00;99.90
7143;DHT22;3613;48.902;9.204;2022-10-16T05:57:25;14.00;99.90
7143;DHT22;3613;48.902;9.204;2022-10-16T05:59:55;14.10;99.90
7143;DHT22;3613;48.902;9.204;2022-10-16T06:02:23;14.00;99.90
7143;DHT22;3613;48.902;9.204;2022-10-16T06:04:51;14.10;99.90
7143;DHT22;3613;48.902;9.204;2022-10-16T06:07:19;14.10;99.90
7143;DHT22;3613;48.902;9.204;2022-10-16T06:09:50;14.30;99.90
7143;DHT22;3613;48.902;9.204;2022-10-16T06:12:16;14.10;99.90
7143;DHT22;3613;48.902;9.204;2022-10-16T06:14:42;14.20;99.90
7143;DHT22;3613;48.902;9.204;2022-10-16T06:17:07;14.20;99.90
7143;DHT22;3613;48.902;9.204;2022-10-16T06:19:33;14.20;99.90
7143;DHT22;3613;48.902;9.204;2022-10-16T06:21:58;14.20;99.90
7143;DHT22;3613;48.902;9.204;2022-10-16T06:24:25;14.20;99.90
7143;DHT22;3613;48.902;9.204;2022-10-16T06:26:50;14.20;99.90
7143;DHT22;3613;48.902;9.204;2022-10-16T06:29:16;14.20;99.90
7143;DHT22;3613;48.902;9.204;2022-10-16T06:31:42;14.20;99.90
7143;DHT22;3613;48.902;9.204;2022-10-16T06:34:10;14.30;99.90
7143;DHT22;3613;48.902;9.204;2022-10-16T06:36:37;14.30;99.90
7143;DHT22;3613;48.902;9.204;2022-10-16T06:39:06;14.40;99.90
7143;DHT22;3613;48.902;9.204;2022-10-16T06:41:33;14.50;99.90
7143;DHT22;3613;48.902;9.204;2022-10-16T06:43:59;14.70;99.90
7143;DHT22;3613;48.902;9.204;2022-10-16T06:46:27;14.50;99.90
7143;DHT22;3613;48.902;9.204;2022-10-16T06:48:53;14.60;99.90
7143;DHT22;3613;48.902;9.204;2022-10-16T06:51:21;14.70;99.90
7143;DHT22;3613;48.902;9.204;2022-10-16T06:53:57;14.80;99.90
7143;DHT22;3613;48.902;9.204;2022-10-16T06:56:26;14.80;99.90
7143;DHT22;3613;48.902;9.204;2022-10-16T06:58:54;14.80;99.90
7143;DHT22;3613;48.902;9.204;2022-10-16T07:01:22;14.90;99.90
7143;DHT22;3613;48.902;9.204;2022-10-16T07:03:48;14.90;99.90
7143;DHT22;3613;48.902;9.204;2022-10-16T07:06:17;15.10;99.90
7143;DHT22;3613;48.902;9.204;2022-10-16T07:08:44;15.20;99.90
7143;DHT22;3613;48.902;9.204;2022-10-16T07:11:19;15.30;99.90
7143;DHT22;3613;48.902;9.204;2022-10-16T07:13:48;15.40;99.90
7143;DHT22;3613;48.902;9.204;2022-10-16T07:16:16;15.60;99.90
7143;DHT22;3613;48.902;9.204;2022-10-16T07:18:44;15.70;99.90
7143;DHT22;3613;48.902;9.204;2022-10-16T07:21:19;15.70;99.90
7143;DHT22;3613;48.902;9.204;2022-10-16T07:23:52;15.70;99.90
7143;DHT22;3613;48.902;9.204;2022-10-16T07:26:19;15.70;99.90
7143;DHT22;3613;48.902;9.204;2022-10-16T07:28:47;15.60;99.90
7143;DHT22;3613;48.902;9.204;2022-10-16T07:31:15;15.60;99.90
7143;DHT22;3613;48.902;9.204;2022-10-16T07:33:44;15.60;99.90
7143;DHT22;3613;48.902;9.204;2022-10-16T07:36:11;15.60;99.90
7143;DHT22;3613;48.902;9.204;2022-10-16T07:38:39;15.60;99.90
7143;DHT22;3613;48.902;9.204;2022-10-16T07:41:11;15.60;99.90
7143;DHT22;3613;48.902;9.204;2022-10-16T07:43:40;15.60;99.90
7143;DHT22;3613;48.902;9.204;2022-10-16T07:46:05;15.60;99.90
7143;DHT22;3613;48.902;9.204;2022-10-16T07:48:34;15.60;99.90
7143;DHT22;3613;48.902;9.204;2022-10-16T07:51:03;15.60;99.90
7143;DHT22;3613;48.902;9.204;2022-10-16T07:53:29;15.60;99.90
7143;DHT22;3613;48.902;9.204;2022-10-16T07:56:01;15.80;99.90
7143;DHT22;3613;48.902;9.204;2022-10-16T07:58:28;15.80;99.90
7143;DHT22;3613;48.902;9.204;2022-10-16T08:00:54;15.90;99.90
7143;DHT22;3613;48.902;9.204;2022-10-16T08:03:20;16.10;99.90
7143;DHT22;3613;48.902;9.204;2022-10-16T08:05:46;16.20;99.90
7143;DHT22;3613;48.902;9.204;2022-10-16T08:08:18;16.40;99.90
7143;DHT22;3613;48.902;9.204;2022-10-16T08:10:44;16.60;99.90
7143;DHT22;3613;48.902;9.204;2022-10-16T08:13:10;16.90;99.90
7143;DHT22;3613;48.902;9.204;2022-10-16T08:15:36;17.10;99.90
7143;DHT22;3613;48.902;9.204;2022-10-16T08:18:04;17.40;99.90
7143;DHT22;3613;48.902;9.204;2022-10-16T08:20:32;17.60;99.90
7143;DHT22;3613;48.902;9.204;2022-10-16T08:22:59;17.80;99.90
7143;DHT22;3613;48.902;9.204;2022-10-16T08:25:24;18.10;99.90
7143;DHT22;3613;48.902;9.204;2022-10-16T08:27:50;18.70;99.90
7143;DHT22;3613;48.902;9.204;2022-10-16T08:30:20;18.80;99.90
7143;DHT22;3613;48.902;9.204;2022-10-16T08:32:46;19.40;99.90
7143;DHT22;3613;48.902;9.204;2022-10-16T08:35:14;19.70;99.90
7143;DHT22;3613;48.902;9.204;2022-10-16T08:37:40;19.90;99.90
7143;DHT22;3613;48.902;9.204;2022-10-16T08:40:22;19.80;99.90
7143;DHT22;3613;48.902;9.204;2022-10-16T08:50:39;20.10;99.90
7143;DHT22;3613;48.902;9.204;2022-10-16T08:53:15;19.90;99.90
7143;DHT22;3613;48.902;9.204;2022-10-16T08:55:45;19.90;99.90
7143;DHT22;3613;48.902;9.204;2022-10-16T08:58:22;19.70;99.90
7143;DHT22;3613;48.902;9.204;2022-10-16T09:00:53;19.70;99.90
7143;DHT22;3613;48.902;9.204;2022-10-16T09:17:34;19.40;99.90
7143;DHT22;3613;48.902;9.204;2022-10-16T09:22:34;19.40;99.90
7143;DHT22;3613;48.902;9.204;2022-10-16T09:25:05;19.50;99.90
7143;DHT22;3613;48.902;9.204;2022-10-16T09:27:38;19.70;99.90
7143;DHT22;3613;48.902;9.204;2022-10-16T09:30:16;20.00;99.90
7143;DHT22;3613;48.902;9.204;2022-10-16T09:32:47;20.40;99.90
7143;DHT22;3613;48.902;9.204;2022-10-16T09:38:02;21.10;99.90
7143;DHT22;3613;48.902;9.204;2022-10-16T09:40:28;21.80;99.90
7143;DHT22;3613;48.902;9.204;2022-10-16T09:43:18;22.50;99.90
7143;DHT22;3613;48.902;9.204;2022-10-16T09:46:06;22.70;99.90
7143;DHT22;3613;48.902;9.204;2022-10-16T09:51:04;22.90;99.90
7143;DHT22;3613;48.902;9.204;2022-10-16T09:53:44;23.40;99.90
7143;DHT22;3613;48.902;9.204;2022-10-16T09:56:12;23.70;99.90
7143;DHT22;3613;48.902;9.204;2022-10-16T09:58:52;23.50;99.90
7143;DHT22;3613;48.902;9.204;2022-10-16T10:01:19;23.70;99.90
7143;DHT22;3613;48.902;9.204;2022-10-16T10:03:46;24.10;99.90
7143;DHT22;3613;48.902;9.204;2022-10-16T10:11:47;23.80;99.90
7143;DHT22;3613;48.902;9.204;2022-10-16T10:19:38;23.10;99.90
7143;DHT22;3613;48.902;9.204;2022-10-16T10:22:17;23.00;99.90
7143;DHT22;3613;48.902;9.204;2022-10-16T10:24:45;23.20;99.90
7143;DHT22;3613;48.902;9.204;2022-10-16T10:27:27;23.60;99.90
7143;DHT22;3613;48.902;9.204;2022-10-16T10:35:28;25.20;99.90
7143;DHT22;3613;48.902;9.204;2022-10-16T10:41:11;24.80;99.90
7143;DHT22;3613;48.902;9.204;2022-10-16T10:50:19;24.90;99.90
7143;DHT22;3613;48.902;9.204;2022-10-16T10:52:56;24.80;99.90
7143;DHT22;3613;48.902;9.204;2022-10-16T10:55:59;24.90;99.90
7143;DHT22;3613;48.902;9.204;2022-10-16T11:04:34;26.40;99.90
7143;DHT22;3613;48.902;9.204;2022-10-16T11:07:09;27.70;99.90
7143;DHT22;3613;48.902;9.204;2022-10-16T11:09:53;28.40;99.90
7143;DHT22;3613;48.902;9.204;2022-10-16T11:12:36;28.70;99.90
7143;DHT22;3613;48.902;9.204;2022-10-16T11:17:57;28.60;99.90
7143;DHT22;3613;48.902;9.204;2022-10-16T11:20:33;28.70;99.70
7143;DHT22;3613;48.902;9.204;2022-10-16T11:23:14;28.90;99.40
7143;DHT22;3613;48.902;9.204;2022-10-16T11:25:43;28.60;99.30
7143;DHT22;3613;48.902;9.204;2022-10-16T11:31:02;29.10;97.90
7143;DHT22;3613;48.902;9.204;2022-10-16T11:33:42;29.40;98.10
7143;DHT22;3613;48.902;9.204;2022-10-16T11:46:40;29.60;95.90
7143;DHT22;3613;48.902;9.204;2022-10-16T11:49:23;30.10;96.90
7143;DHT22;3613;48.902;9.204;2022-10-16T11:54:28;30.80;93.20
7143;DHT22;3613;48.902;9.204;2022-10-16T11:57:01;30.90;93.80
7143;DHT22;3613;48.902;9.204;2022-10-16T11:59:35;30.50;93.70
7143;DHT22;3613;48.902;9.204;2022-10-16T12:08:00;29.50;95.30
7143;DHT22;3613;48.902;9.204;2022-10-16T12:10:30;29.40;95.20
7143;DHT22;3613;48.902;9.204;2022-10-16T12:12:57;29.40;94.20
7143;DHT22;3613;48.902;9.204;2022-10-16T12:17:54;29.10;96.10
7143;DHT22;3613;48.902;9.204;2022-10-16T12:20:31;28.80;96.00
7143;DHT22;3613;48.902;9.204;2022-10-16T12:23:05;28.30;95.60
7143;DHT22;3613;48.902;9.204;2022-10-16T12:25:36;27.60;99.60
7143;DHT22;3613;48.902;9.204;2022-10-16T12:28:19;27.20;99.90
7143;DHT22;3613;48.902;9.204;2022-10-16T12:30:59;26.50;98.50
7143;DHT22;3613;48.902;9.204;2022-10-16T12:33:30;26.10;99.70
7143;DHT22;3613;48.902;9.204;2022-10-16T12:35:58;26.00;99.90
7143;DHT22;3613;48.902;9.204;2022-10-16T12:38:38;26.50;99.90
7143;DHT22;3613;48.902;9.204;2022-10-16T12:41:25;26.70;99.90
7143;DHT22;3613;48.902;9.204;2022-10-16T12:43:52;26.80;99.90
7143;DHT22;3613;48.902;9.204;2022-10-16T12:48:44;28.30;97.10
7143;DHT22;3613;48.902;9.204;2022-10-16T12:51:12;28.90;95.30
7143;DHT22;3613;48.902;9.204;2022-10-16T12:53:40;29.40;95.00
7143;DHT22;3613;48.902;9.204;2022-10-16T13:04:44;27.20;98.50
7143;DHT22;3613;48.902;9.204;2022-10-16T13:18:27;25.10;99.90
7143;DHT22;3613;48.902;9.204;2022-10-16T13:21:30;25.50;99.90
7143;DHT22;3613;48.902;9.204;2022-10-16T13:29:53;25.70;99.90
7143;DHT22;3613;48.902;9.204;2022-10-16T13:32:24;25.20;99.90
7143;DHT22;3613;48.902;9.204;2022-10-16T13:34:50;25.00;99.90
7143;DHT22;3613;48.902;9.204;2022-10-16T13:37:19;24.90;99.90
7143;DHT22;3613;48.902;9.204;2022-10-16T13:39:47;24.80;99.90
7143;DHT22;3613;48.902;9.204;2022-10-16T13:42:27;24.60;99.90
7143;DHT22;3613;48.902;9.204;2022-10-16T13:44:56;24.40;99.90
7143;DHT22;3613;48.902;9.204;2022-10-16T13:47:29;24.30;99.90
7143;DHT22;3613;48.902;9.204;2022-10-16T13:50:02;24.40;99.90
7143;DHT22;3613;48.902;9.204;2022-10-16T13:52:28;24.00;99.90
7143;DHT22;3613;48.902;9.204;2022-10-16T13:54:56;23.90;99.90
7143;DHT22;3613;48.902;9.204;2022-10-16T13:57:24;23.80;99.90
7143;DHT22;3613;48.902;9.204;2022-10-16T13:59:50;23.80;99.90
7143;DHT22;3613;48.902;9.204;2022-10-16T14:02:25;23.80;99.90
7143;DHT22;3613;48.902;9.204;2022-10-16T14:04:53;23.70;99.90
7143;DHT22;3613;48.902;9.204;2022-10-16T14:07:31;23.70;99.90
7143;DHT22;3613;48.902;9.204;2022-10-16T14:10:00;23.50;99.90
7143;DHT22;3613;48.902;9.204;2022-10-16T14:12:27;23.30;99.90
7143;DHT22;3613;48.902;9.204;2022-10-16T14:14:54;23.20;99.90
7143;DHT22;3613;48.902;9.204;2022-10-16T14:17:27;23.10;99.90
7143;DHT22;3613;48.902;9.204;2022-10-16T14:19:59;22.90;99.90
7143;DHT22;3613;48.902;9.204;2022-10-16T14:22:35;22.80;99.90
7143;DHT22;3613;48.902;9.204;2022-10-16T14:25:27;22.90;99.90
7143;DHT22;3613;48.902;9.204;2022-10-16T14:28:18;22.80;99.90
7143;DHT22;3613;48.902;9.204;2022-10-16T14:30:59;22.80;99.90
7143;DHT22;3613;48.902;9.204;2022-10-16T14:36:11;22.90;99.90
7143;DHT22;3613;48.902;9.204;2022-10-16T14:39:02;22.80;99.90
7143;DHT22;3613;48.902;9.204;2022-10-16T14:41:30;22.90;99.90
7143;DHT22;3613;48.902;9.204;2022-10-16T14:44:01;23.00;99.90
7143;DHT22;3613;48.902;9.204;2022-10-16T14:46:41;23.00;99.90
7143;DHT22;3613;48.902;9.204;2022-10-16T14:51:41;22.90;99.90
7143;DHT22;3613;48.902;9.204;2022-10-16T14:54:15;22.40;99.90
7143;DHT22;3613;48.902;9.204;2022-10-16T14:56:51;23.00;99.90
7143;DHT22;3613;48.902;9.204;2022-10-16T14:59:22;23.00;99.90
7143;DHT22;3613;48.902;9.204;2022-10-16T15:01:52;23.00;99.90
7143;DHT22;3613;48.902;9.204;2022-10-16T15:04:20;23.00;99.90
7143;DHT22;3613;48.902;9.204;2022-10-16T15:06:48;22.80;99.90
7143;DHT22;3613;48.902;9.204;2022-10-16T15:09:14;22.80;99.90
7143;DHT22;3613;48.902;9.204;2022-10-16T15:11:40;22.50;99.90
7143;DHT22;3613;48.902;9.204;2022-10-16T15:14:11;22.40;99.90
7143;DHT22;3613;48.902;9.204;2022-10-16T15:16:36;22.40;99.90
7143;DHT22;3613;48.902;9.204;2022-10-16T15:19:02;22.40;99.90
7143;DHT22;3613;48.902;9.204;2022-10-16T15:21:31;22.40;99.90
7143;DHT22;3613;48.902;9.204;2022-10-16T15:23:57;22.30;99.90
7143;DHT22;3613;48.902;9.204;2022-10-16T15:26:25;22.20;99.90
7143;DHT22;3613;48.902;9.204;2022-10-16T15:28:51;22.10;99.90
7143;DHT22;3613;48.902;9.204;2022-10-16T15:31:16;22.00;99.90
7143;DHT22;3613;48.902;9.204;2022-10-16T15:33:42;21.90;99.90
7143;DHT22;3613;48.902;9.204;2022-10-16T15:36:08;21.70;99.90
7143;DHT22;3613;48.902;9.204;2022-10-16T15:38:34;21.50;99.90
7143;DHT22;3613;48.902;9.204;2022-10-16T15:41:00;21.50;99.90
7143;DHT22;3613;48.902;9.204;2022-10-16T15:43:25;21.40;99.90
7143;DHT22;3613;48.902;9.204;2022-10-16T15:46:06;21.30;99.90
7143;DHT22;3613;48.902;9.204;2022-10-16T15:48:32;21.20;99.90
7143;DHT22;3613;48.902;9.204;2022-10-16T15:50:59;21.30;99.90
7143;DHT22;3613;48.902;9.204;2022-10-16T15:53:27;21.30;99.90
7143;DHT22;3613;48.902;9.204;2022-10-16T15:55:52;21.30;99.90
7143;DHT22;3613;48.902;9.204;2022-10-16T15:58:18;21.30;99.90
7143;DHT22;3613;48.902;9.204;2022-10-16T16:00:44;21.30;99.90
7143;DHT22;3613;48.902;9.204;2022-10-16T16:03:09;21.20;99.90
7143;DHT22;3613;48.902;9.204;2022-10-16T16:05:38;21.20;99.90
7143;DHT22;3613;48.902;9.204;2022-10-16T16:08:05;21.10;99.90
7143;DHT22;3613;48.902;9.204;2022-10-16T16:10:30;21.00;99.90
7143;DHT22;3613;48.902;9.204;2022-10-16T16:12:56;20.90;99.90
7143;DHT22;3613;48.902;9.204;2022-10-16T16:15:24;20.80;99.90
7143;DHT22;3613;48.902;9.204;2022-10-16T16:17:50;20.70;99.90
7143;DHT22;3613;48.902;9.204;2022-10-16T16:20:16;20.70;99.90
7143;DHT22;3613;48.902;9.204;2022-10-16T16:22:43;20.60;99.90
7143;DHT22;3613;48.902;9.204;2022-10-16T16:25:09;20.60;99.90
7143;DHT22;3613;48.902;9.204;2022-10-16T16:27:35;20.40;99.90
7143;DHT22;3613;48.902;9.204;2022-10-16T16:30:05;20.20;99.90
7143;DHT22;3613;48.902;9.204;2022-10-16T16:32:37;20.10;99.90
7143;DHT22;3613;48.902;9.204;2022-10-16T16:35:04;20.10;99.90
7143;DHT22;3613;48.902;9.204;2022-10-16T16:37:30;20.00;99.90
7143;DHT22;3613;48.902;9.204;2022-10-16T16:39:56;19.90;99.90
7143;DHT22;3613;48.902;9.204;2022-10-16T16:42:26;19.80;99.90
7143;DHT22;3613;48.902;9.204;2022-10-16T16:44:52;19.70;99.90
7143;DHT22;3613;48.902;9.204;2022-10-16T16:47:18;19.60;99.90
7143;DHT22;3613;48.902;9.204;2022-10-16T16:49:44;19.40;99.90
7143;DHT22;3613;48.902;9.204;2022-10-16T16:52:12;19.30;99.90
7143;DHT22;3613;48.902;9.204;2022-10-16T16:54:38;19.20;99.90
7143;DHT22;3613;48.902;9.204;2022-10-16T16:57:06;19.20;99.90
7143;DHT22;3613;48.902;9.204;2022-10-16T16:59:32;19.20;99.90
7143;DHT22;3613;48.902;9.204;2022-10-16T17:02:00;19.20;99.90
7143;DHT22;3613;48.902;9.204;2022-10-16T17:04:28;19.00;99.90
7143;DHT22;3613;48.902;9.204;2022-10-16T17:06:55;18.90;99.90
7143;DHT22;3613;48.902;9.204;2022-10-16T17:09:21;18.70;99.90
7143;DHT22;3613;48.902;9.204;2022-10-16T17:11:47;18.60;99.90
7143;DHT22;3613;48.902;9.204;2022-10-16T17:14:14;18.50;99.90
7143;DHT22;3613;48.902;9.204;2022-10-16T17:16:44;18.30;99.90
7143;DHT22;3613;48.902;9.204;2022-10-16T17:19:15;18.10;99.90
7143;DHT22;3613;48.902;9.204;2022-10-16T17:21:43;18.00;99.90
7143;DHT22;3613;48.902;9.204;2022-10-16T17:24:08;17.80;99.90
7143;DHT22;3613;48.902;9.204;2022-10-16T17:26:36;17.70;99.90
7143;DHT22;3613;48.902;9.204;2022-10-16T17:29:13;18.80;99.90
7143;DHT22;3613;48.902;9.204;2022-10-16T17:31:42;17.40;99.90
7143;DHT22;3613;48.902;9.204;2022-10-16T17:34:08;17.20;99.90
7143;DHT22;3613;48.902;9.204;2022-10-16T17:36:37;17.10;99.90
7143;DHT22;3613;48.902;9.204;2022-10-16T17:39:06;17.00;99.90
7143;DHT22;3613;48.902;9.204;2022-10-16T17:41:32;16.80;99.90
7143;DHT22;3613;48.902;9.204;2022-10-16T17:43:58;16.80;99.90
7143;DHT22;3613;48.902;9.204;2022-10-16T17:46:24;16.70;99.90
7143;DHT22;3613;48.902;9.204;2022-10-16T17:48:53;16.60;99.90
7143;DHT22;3613;48.902;9.204;2022-10-16T17:51:23;16.50;99.90
7143;DHT22;3613;48.902;9.204;2022-10-16T17:53:54;16.40;99.90
7143;DHT22;3613;48.902;9.204;2022-10-16T17:56:21;16.40;99.90
7143;DHT22;3613;48.902;9.204;2022-10-16T17:58:52;16.30;99.90
7143;DHT22;3613;48.902;9.204;2022-10-16T18:01:21;16.20;99.90
7143;DHT22;3613;48.902;9.204;2022-10-16T18:03:58;16.10;99.90
7143;DHT22;3613;48.902;9.204;2022-10-16T18:06:24;16.10;99.90
7143;DHT22;3613;48.902;9.204;2022-10-16T18:08:51;16.00;99.90
7143;DHT22;3613;48.902;9.204;2022-10-16T18:11:21;15.90;99.90
7143;DHT22;3613;48.902;9.204;2022-10-16T18:13:47;15.90;99.90
7143;DHT22;3613;48.902;9.204;2022-10-16T18:16:16;15.80;99.90
7143;DHT22;3613;48.902;9.204;2022-10-16T18:18:44;15.80;99.90
7143;DHT22;3613;48.902;9.204;2022-10-16T18:21:13;15.60;99.90
7143;DHT22;3613;48.902;9.204;2022-10-16T18:23:40;15.60;99.90
7143;DHT22;3613;48.902;9.204;2022-10-16T18:26:07;15.60;99.90
7143;DHT22;3613;48.902;9.204;2022-10-16T18:28:33;15.60;99.90
7143;DHT22;3613;48.902;9.204;2022-10-16T18:31:02;15.50;99.90
7143;DHT22;3613;48.902;9.204;2022-10-16T18:33:31;15.50;99.90
7143;DHT22;3613;48.902;9.204;2022-10-16T18:36:04;15.40;99.90
7143;DHT22;3613;48.902;9.204;2022-10-16T18:38:31;15.40;99.90
7143;DHT22;3613;48.902;9.204;2022-10-16T18:40:57;15.30;99.90